Time;durP1;ratioP1;P1;durP2;ratioP2;P2;SDS_P1;SDS_P2;PMS_P1;PMS_P2;Temp;Humidity;BMP_temperature;BMP_pressure;BME280_temperature;BME280_humidity;BME280_pressure;Samples;Min_cycle;Max_cycle;Signal;HPM_P1;HPM_P2
2021/01/15 00:01:40;;;;;;;12.77;9.77;;;0.70;99.90;;;;;;5103484;28;20197;-76
2021/01/15 00:04:07;;;;;;;16.30;10.27;;;0.80;99.90;;;;;;5101348;28;20607;-75
2021/01/15 00:06:33;;;;;;;14.57;9.63;;;0.70;99.90;;;;;;5115513;28;20198;-76
2021/01/15 00:09:00;;;;;;;16.50;11.23;;;0.60;99.90;;;;;;5115871;28;20198;-77
2021/01/15 00:11:30;;;;;;;15.87;11.27;;;0.70;99.90;;;;;;5096758;28;20208;-77
2021/01/15 00:13:57;;;;;;;15.73;11.10;;;0.60;99.90;;;;;;5098136;28;20225;-76
2021/01/15 00:16:25;;;;;;;16.33;11.10;;;0.50;99.90;;;;;;5111327;28;20263;-76
2021/01/15 00:18:54;;;;;;;17.30;11.10;;;0.50;99.90;;;;;;5113388;28;20220;-76
2021/01/15 00:21:23;;;;;;;17.37;11.40;;;0.50;99.90;;;;;;5110174;28;20611;-76
2021/01/15 00:23:50;;;;;;;14.80;10.87;;;0.50;99.90;;;;;;5103736;28;20206;-76
2021/01/15 00:26:18;;;;;;;16.93;11.70;;;0.70;99.90;;;;;;5111192;28;20246;-75
2021/01/15 00:28:44;;;;;;;17.57;11.33;;;0.40;99.90;;;;;;5107922;28;20210;-74
2021/01/15 00:31:11;;;;;;;14.30;10.63;;;0.50;99.90;;;;;;5107693;28;20208;-75
2021/01/15 00:33:37;;;;;;;17.10;10.93;;;0.40;99.90;;;;;;5114587;28;20250;-77
2021/01/15 00:36:06;;;;;;;18.37;12.50;;;0.40;99.90;;;;;;5104175;28;20202;-75
2021/01/15 00:38:33;;;;;;;15.17;11.80;;;0.40;99.90;;;;;;5106061;28;20216;-75
2021/01/15 00:41:00;;;;;;;17.07;13.00;;;0.40;99.90;;;;;;5105521;28;20205;-75
2021/01/15 00:43:26;;;;;;;19.83;12.87;;;0.40;99.90;;;;;;5110193;28;20203;-75
2021/01/15 00:45:53;;;;;;;17.13;13.13;;;0.40;99.90;;;;;;5109737;28;20286;-76
2021/01/15 00:48:19;;;;;;;17.03;12.10;;;0.30;99.90;;;;;;5094629;28;20218;-75
2021/01/15 00:50:46;;;;;;;20.63;13.57;;;0.30;99.90;;;;;;5108905;28;20201;-75
2021/01/15 00:53:13;;;;;;;16.27;12.10;;;0.30;99.90;;;;;;5102633;28;20286;-75
2021/01/15 00:55:39;;;;;;;17.10;12.47;;;0.30;99.90;;;;;;5114441;28;20201;-77
2021/01/15 00:58:05;;;;;;;22.27;13.30;;;0.40;99.90;;;;;;5100586;28;20197;-76
2021/01/15 01:00:32;;;;;;;20.50;13.03;;;0.30;99.90;;;;;;5107047;28;20231;-75
2021/01/15 01:02:58;;;;;;;25.43;13.10;;;0.30;99.90;;;;;;5103751;28;20211;-76
2021/01/15 01:05:25;;;;;;;21.40;12.70;;;0.30;99.90;;;;;;5095065;28;20293;-75
2021/01/15 01:07:52;;;;;;;24.47;14.17;;;0.40;99.90;;;;;;5110213;28;20209;-76
2021/01/15 01:10:19;;;;;;;20.40;13.50;;;0.30;99.90;;;;;;5114116;28;20625;-75
2021/01/15 01:12:46;;;;;;;23.50;13.60;;;0.40;99.90;;;;;;5093882;28;20206;-76
2021/01/15 01:15:14;;;;;;;21.10;13.07;;;0.30;99.90;;;;;;5106159;28;20209;-75
2021/01/15 01:17:41;;;;;;;21.70;12.97;;;0.30;99.90;;;;;;5114666;28;20203;-77
2021/01/15 01:20:09;;;;;;;18.40;12.23;;;0.30;99.90;;;;;;5113864;28;20197;-75
2021/01/15 01:22:35;;;;;;;18.53;13.40;;;0.30;99.90;;;;;;5114068;28;20201;-75
2021/01/15 01:25:02;;;;;;;18.70;13.30;;;0.30;99.90;;;;;;5105577;28;20210;-75
2021/01/15 01:27:29;;;;;;;19.10;13.00;;;0.20;99.90;;;;;;5109733;28;20186;-75
2021/01/15 01:29:55;;;;;;;19.73;12.53;;;0.20;99.90;;;;;;5112395;28;21149;-75
2021/01/15 01:32:22;;;;;;;19.73;12.87;;;0.30;99.90;;;;;;5113547;28;20248;-76
2021/01/15 01:34:48;;;;;;;23.50;12.90;;;0.40;99.90;;;;;;5112984;28;20308;-75
2021/01/15 01:37:14;;;;;;;16.23;11.30;;;0.20;99.90;;;;;;5113038;28;20208;-76
2021/01/15 01:39:41;;;;;;;18.07;12.53;;;0.20;99.90;;;;;;5112996;28;20206;-75
2021/01/15 01:42:07;;;;;;;17.70;12.80;;;0.20;99.90;;;;;;5111031;28;20211;-76
2021/01/15 01:44:34;;;;;;;18.63;12.50;;;0.20;99.90;;;;;;5112575;28;20219;-76
2021/01/15 01:47:01;;;;;;;18.77;12.77;;;0.20;99.90;;;;;;5111911;28;20563;-76
2021/01/15 01:49:28;;;;;;;18.63;12.77;;;0.20;99.90;;;;;;5113493;28;20201;-75
2021/01/15 01:51:56;;;;;;;19.80;12.60;;;0.20;99.90;;;;;;5113863;28;20246;-75
2021/01/15 01:54:23;;;;;;;20.83;11.23;;;0.20;99.90;;;;;;5099403;28;20221;-75
2021/01/15 01:56:49;;;;;;;20.67;13.10;;;0.10;99.90;;;;;;5113917;28;20246;-76
2021/01/15 01:59:16;;;;;;;16.77;11.73;;;0.20;99.90;;;;;;5112126;28;20197;-76
2021/01/15 02:01:43;;;;;;;19.40;12.23;;;0.10;99.90;;;;;;5093760;28;20206;-75
2021/01/15 02:04:10;;;;;;;17.33;10.97;;;0.20;99.90;;;;;;5107898;28;20288;-78
2021/01/15 02:06:36;;;;;;;16.63;11.77;;;0.10;99.90;;;;;;5113982;28;20198;-76
2021/01/15 02:09:04;;;;;;;18.80;12.87;;;0.10;99.90;;;;;;5101342;28;20198;-77
2021/01/15 02:11:36;;;;;;;19.63;12.13;;;0.10;99.90;;;;;;5097753;28;20210;-76
2021/01/15 02:14:08;;;;;;;22.03;13.83;;;0.10;99.90;;;;;;5115165;28;20238;-76
2021/01/15 02:16:36;;;;;;;17.80;12.23;;;0.10;99.90;;;;;;5099183;28;20225;-76
2021/01/15 02:19:18;;;;;;;20.37;13.43;;;0.00;99.90;;;;;;5108261;28;20261;-78
2021/01/15 02:22:17;;;;;;;17.87;13.17;;;0.10;99.90;;;;;;5112591;28;20200;-77
2021/01/15 02:25:08;;;;;;;19.37;12.97;;;0.10;99.90;;;;;;5059924;28;20257;-76
2021/01/15 02:27:58;;;;;;;17.73;12.57;;;0.10;99.90;;;;;;5118933;28;20193;-76
2021/01/15 02:30:40;;;;;;;20.37;13.17;;;0.10;99.90;;;;;;5118734;28;20190;-77
2021/01/15 02:33:15;;;;;;;17.97;13.20;;;0.10;99.90;;;;;;5118202;28;20255;-77
2021/01/15 02:35:49;;;;;;;18.83;13.70;;;0.10;99.90;;;;;;5118050;28;20190;-76
2021/01/15 02:38:34;;;;;;;21.47;14.03;;;0.00;99.90;;;;;;5108531;28;20221;-76
2021/01/15 02:41:29;;;;;;;20.67;14.17;;;0.10;99.90;;;;;;5110758;28;20210;-76
2021/01/15 02:43:58;;;;;;;22.87;14.40;;;0.00;99.90;;;;;;5050221;28;20661;-76
2021/01/15 02:46:40;;;;;;;27.00;14.97;;;0.00;99.90;;;;;;5103133;28;20674;-77
2021/01/15 02:49:10;;;;;;;26.00;15.93;;;0.00;99.90;;;;;;5102676;28;20198;-76
2021/01/15 02:51:39;;;;;;;23.17;16.13;;;0.00;99.90;;;;;;5103927;28;20196;-76
2021/01/15 02:54:06;;;;;;;23.17;16.20;;;0.00;99.90;;;;;;5103544;28;20233;-76
2021/01/15 02:56:32;;;;;;;26.67;18.03;;;0.00;99.90;;;;;;5096430;28;20198;-76
2021/01/15 02:58:59;;;;;;;26.60;16.77;;;0.00;99.90;;;;;;5096612;28;20294;-75
2021/01/15 03:01:29;;;;;;;32.07;17.83;;;-0.10;99.90;;;;;;5111112;28;20194;-75
2021/01/15 03:04:03;;;;;;;26.00;17.60;;;0.00;99.90;;;;;;5096773;28;20209;-77
2021/01/15 03:06:38;;;;;;;29.53;18.13;;;-0.10;99.90;;;;;;5111050;28;20644;-76
2021/01/15 03:09:06;;;;;;;28.00;19.13;;;0.00;99.90;;;;;;5107088;28;20563;-77
2021/01/15 03:11:34;;;;;;;30.07;19.60;;;-0.10;99.90;;;;;;5102649;28;20210;-76
2021/01/15 03:14:02;;;;;;;34.23;21.30;;;-0.20;99.90;;;;;;5107513;28;20222;-75
2021/01/15 03:16:30;;;;;;;31.90;20.60;;;0.00;99.90;;;;;;5097494;28;20198;-75
2021/01/15 03:18:59;;;;;;;34.03;20.50;;;-0.10;99.90;;;;;;5109388;28;20198;-76
2021/01/15 03:21:27;;;;;;;34.07;20.40;;;-0.10;99.90;;;;;;5096586;28;20209;-76
2021/01/15 03:23:55;;;;;;;36.60;21.60;;;-0.10;99.90;;;;;;5096586;28;20210;-76
2021/01/15 03:26:21;;;;;;;34.27;20.83;;;-0.10;99.90;;;;;;5094842;28;20689;-76
2021/01/15 03:28:48;;;;;;;33.03;20.37;;;0.00;99.90;;;;;;5110447;28;20202;-76
2021/01/15 03:31:15;;;;;;;34.47;22.03;;;-0.10;99.90;;;;;;5096129;28;20201;-75
2021/01/15 03:33:41;;;;;;;33.50;19.83;;;0.00;99.90;;;;;;5096446;28;20230;-75
2021/01/15 03:36:08;;;;;;;33.93;20.67;;;0.00;99.90;;;;;;5096092;28;20254;-75
2021/01/15 03:38:34;;;;;;;33.47;19.70;;;0.00;99.90;;;;;;5096077;28;20255;-77
2021/01/15 03:41:02;;;;;;;30.77;19.20;;;-0.10;99.90;;;;;;5095927;28;20198;-75
2021/01/15 03:43:28;;;;;;;35.63;20.50;;;0.00;99.90;;;;;;5095889;28;20288;-75
2021/01/15 03:45:55;;;;;;;31.70;18.83;;;0.00;99.90;;;;;;5110258;28;20233;-75
2021/01/15 03:48:22;;;;;;;32.07;18.87;;;0.00;99.90;;;;;;5106598;28;20197;-76
2021/01/15 03:50:49;;;;;;;33.20;18.97;;;0.00;99.90;;;;;;5098771;28;20216;-75
2021/01/15 03:53:16;;;;;;;30.57;18.10;;;0.00;99.90;;;;;;5095598;28;20218;-75
2021/01/15 03:55:43;;;;;;;30.80;18.83;;;0.00;99.90;;;;;;5095536;28;20237;-75
2021/01/15 03:58:10;;;;;;;28.50;18.00;;;0.00;99.90;;;;;;5102485;28;20246;-75
2021/01/15 04:00:37;;;;;;;28.37;17.47;;;0.20;99.90;;;;;;5115995;28;20206;-75
2021/01/15 04:03:06;;;;;;;27.23;17.97;;;0.00;99.90;;;;;;5095583;28;20202;-76
2021/01/15 04:05:33;;;;;;;26.23;16.67;;;0.00;99.90;;;;;;5095496;28;20230;-76
2021/01/15 04:08:00;;;;;;;28.33;16.57;;;0.00;99.90;;;;;;5095292;28;20210;-77
2021/01/15 04:10:26;;;;;;;33.93;18.53;;;0.00;99.90;;;;;;5094961;28;20209;-77
2021/01/15 04:12:52;;;;;;;27.23;17.13;;;0.00;99.90;;;;;;5094619;28;20216;-77
2021/01/15 04:15:20;;;;;;;25.07;16.57;;;0.00;99.90;;;;;;5103778;28;20206;-77
2021/01/15 04:17:46;;;;;;;25.97;15.50;;;0.00;99.90;;;;;;5115306;28;20529;-76
2021/01/15 04:20:14;;;;;;;25.77;15.67;;;0.00;99.90;;;;;;5115251;28;20292;-77
2021/01/15 04:22:43;;;;;;;24.10;15.37;;;0.00;99.90;;;;;;5115248;28;20205;-76
2021/01/15 04:25:12;;;;;;;26.87;16.63;;;0.00;99.90;;;;;;5114920;28;20257;-76
2021/01/15 04:27:40;;;;;;;23.73;15.87;;;0.00;99.90;;;;;;5114493;28;20197;-76
2021/01/15 04:30:08;;;;;;;23.03;15.23;;;0.00;99.90;;;;;;5104028;28;20371;-76
2021/01/15 04:32:36;;;;;;;24.53;14.63;;;0.00;99.90;;;;;;5114892;28;20197;-77
2021/01/15 04:35:03;;;;;;;23.87;16.40;;;0.00;99.90;;;;;;5115286;28;20221;-76
2021/01/15 04:37:30;;;;;;;24.23;15.60;;;0.00;99.90;;;;;;5100136;28;20671;-76
2021/01/15 04:39:56;;;;;;;27.67;15.13;;;0.00;99.90;;;;;;5103404;28;20198;-76
2021/01/15 04:42:24;;;;;;;24.13;14.63;;;0.00;99.90;;;;;;5094704;28;20245;-77
2021/01/15 04:44:51;;;;;;;26.20;15.67;;;0.00;99.90;;;;;;5094831;28;20275;-78
2021/01/15 04:47:17;;;;;;;23.23;14.87;;;0.00;99.90;;;;;;5096241;28;20206;-78
2021/01/15 04:49:46;;;;;;;21.70;14.00;;;0.10;99.90;;;;;;5094477;28;20202;-76
2021/01/15 04:52:14;;;;;;;25.73;15.57;;;0.10;99.90;;;;;;5094135;28;20202;-77
2021/01/15 04:54:42;;;;;;;24.50;14.97;;;0.10;99.90;;;;;;5094035;28;20256;-77
2021/01/15 04:57:10;;;;;;;21.33;13.93;;;0.10;99.90;;;;;;5094506;28;20281;-77
2021/01/15 04:59:42;;;;;;;23.03;14.27;;;0.00;99.90;;;;;;5094401;28;20212;-77
2021/01/15 05:02:10;;;;;;;24.00;15.13;;;0.00;99.90;;;;;;5094206;28;20649;-77
2021/01/15 05:04:37;;;;;;;22.03;13.63;;;0.20;99.90;;;;;;5094207;28;20221;-77
2021/01/15 05:07:06;;;;;;;25.20;15.07;;;0.10;99.90;;;;;;5094371;28;20206;-78
2021/01/15 05:09:40;;;;;;;27.13;14.67;;;0.00;99.90;;;;;;5108565;28;20292;-77
2021/01/15 05:12:09;;;;;;;23.10;14.90;;;0.00;99.90;;;;;;5094426;28;20207;-78
2021/01/15 05:14:36;;;;;;;24.17;13.87;;;0.10;99.90;;;;;;5094097;28;20229;-77
2021/01/15 05:17:04;;;;;;;20.73;14.40;;;0.10;99.90;;;;;;5093779;28;20299;-78
2021/01/15 05:19:31;;;;;;;21.97;14.43;;;0.10;99.90;;;;;;5108351;28;20230;-78
2021/01/15 05:21:57;;;;;;;21.43;14.07;;;0.10;99.90;;;;;;5093866;28;20210;-78
2021/01/15 05:24:25;;;;;;;23.53;14.63;;;0.10;99.90;;;;;;5093717;28;20198;-77
2021/01/15 05:26:52;;;;;;;24.03;13.83;;;0.30;99.90;;;;;;5108090;28;20604;-78
2021/01/15 05:29:18;;;;;;;19.47;13.80;;;0.20;99.90;;;;;;5093635;28;20209;-77
2021/01/15 05:31:52;;;;;;;20.77;13.30;;;0.30;99.90;;;;;;5107997;28;20202;-77
2021/01/15 05:34:20;;;;;;;22.67;14.00;;;0.20;99.90;;;;;;5093765;28;20300;-76
2021/01/15 05:36:47;;;;;;;19.27;12.97;;;0.20;99.90;;;;;;5093918;28;20209;-76
2021/01/15 05:39:16;;;;;;;22.07;13.70;;;0.20;99.90;;;;;;5093915;28;20224;-76
2021/01/15 05:41:44;;;;;;;22.13;13.50;;;0.20;99.90;;;;;;5093474;28;20794;-77
2021/01/15 05:44:11;;;;;;;23.53;14.67;;;0.20;99.90;;;;;;5093478;28;20262;-76
2021/01/15 05:46:47;;;;;;;23.70;14.50;;;0.20;99.90;;;;;;5093670;28;20240;-76
2021/01/15 05:49:13;;;;;;;26.23;15.07;;;0.20;99.90;;;;;;5092623;28;20205;-76
2021/01/15 05:51:40;;;;;;;21.43;14.63;;;0.20;99.90;;;;;;5093608;28;20653;-76
2021/01/15 05:54:09;;;;;;;22.43;14.87;;;0.20;99.90;;;;;;5093593;28;20222;-76
2021/01/15 05:56:44;;;;;;;21.77;12.63;;;0.20;99.90;;;;;;5093463;28;20202;-76
2021/01/15 05:59:13;;;;;;;19.67;13.13;;;0.20;99.90;;;;;;5093259;28;20282;-76
2021/01/15 06:01:48;;;;;;;19.57;13.87;;;0.50;99.90;;;;;;5093479;28;20317;-77
2021/01/15 06:04:17;;;;;;;22.87;14.43;;;0.30;99.90;;;;;;5093509;28;20255;-77
2021/01/15 06:06:47;;;;;;;21.90;15.07;;;0.30;99.90;;;;;;5093272;28;20289;-77
2021/01/15 06:09:19;;;;;;;22.50;13.80;;;0.30;99.90;;;;;;5093213;28;20202;-77
2021/01/15 06:11:48;;;;;;;23.47;14.50;;;0.30;99.90;;;;;;5093559;28;20198;-77
2021/01/15 06:14:22;;;;;;;20.30;14.13;;;0.30;99.90;;;;;;5093070;28;20213;-76
2021/01/15 06:16:49;;;;;;;18.70;13.37;;;0.30;99.90;;;;;;5093370;28;20205;-76
2021/01/15 06:19:15;;;;;;;19.13;12.60;;;0.30;99.90;;;;;;5092982;28;20202;-76
2021/01/15 06:21:53;;;;;;;21.73;14.03;;;0.50;99.90;;;;;;5092928;28;20657;-77
2021/01/15 06:24:22;;;;;;;21.70;13.67;;;0.40;99.90;;;;;;5093495;28;20289;-77
2021/01/15 06:27:05;;;;;;;21.07;14.47;;;0.40;99.90;;;;;;5092763;28;20611;-78
2021/01/15 06:29:44;;;;;;;20.90;13.23;;;0.40;99.90;;;;;;5093329;28;20202;-77
2021/01/15 06:32:13;;;;;;;17.83;13.27;;;0.40;99.90;;;;;;5092835;28;20652;-77
2021/01/15 06:34:47;;;;;;;21.03;14.00;;;0.40;99.90;;;;;;5103431;28;20225;-77
2021/01/15 06:37:19;;;;;;;24.03;13.57;;;0.40;99.90;;;;;;5113004;28;20535;-76
2021/01/15 06:40:11;;;;;;;20.87;13.30;;;0.40;99.90;;;;;;5113662;28;20201;-77
2021/01/15 06:42:46;;;;;;;20.00;12.93;;;0.40;99.90;;;;;;5108128;28;20220;-77
2021/01/15 06:45:13;;;;;;;21.90;14.77;;;0.40;99.90;;;;;;5105864;28;20209;-77
2021/01/15 06:47:41;;;;;;;18.70;13.10;;;0.40;99.90;;;;;;5093807;28;20195;-78
2021/01/15 06:50:13;;;;;;;22.77;14.57;;;0.50;99.90;;;;;;5104286;28;20288;-78
2021/01/15 06:52:43;;;;;;;19.40;14.30;;;0.40;99.90;;;;;;5109088;28;20657;-77
2021/01/15 06:55:15;;;;;;;20.83;13.43;;;0.60;99.90;;;;;;5103852;28;20221;-76
2021/01/15 06:57:47;;;;;;;20.97;13.57;;;0.50;99.90;;;;;;5095389;28;20209;-77
2021/01/15 07:00:15;;;;;;;18.60;13.07;;;0.50;99.90;;;;;;5094483;28;20558;-78
2021/01/15 07:03:22;;;;;;;19.43;12.90;;;0.50;99.90;;;;;;5111239;28;20209;-78
2021/01/15 07:05:49;;;;;;;19.50;14.00;;;0.50;99.90;;;;;;5094021;28;20204;-79
2021/01/15 07:08:15;;;;;;;21.77;13.00;;;0.70;99.90;;;;;;5096754;28;20202;-76
2021/01/15 07:10:46;;;;;;;19.80;13.43;;;0.60;99.90;;;;;;5096250;28;20296;-78
2021/01/15 07:13:22;;;;;;;20.10;14.00;;;0.50;99.90;;;;;;5100108;28;20652;-76
2021/01/15 07:15:54;;;;;;;21.87;13.67;;;0.60;99.90;;;;;;5115483;28;20326;-79
2021/01/15 07:18:31;;;;;;;21.80;13.70;;;0.60;99.90;;;;;;5113429;28;20201;-78
2021/01/15 07:21:03;;;;;;;21.27;13.53;;;0.80;99.90;;;;;;5116944;28;20201;-78
2021/01/15 07:23:47;;;;;;;19.60;13.27;;;0.70;99.90;;;;;;5113323;28;20288;-76
2021/01/15 07:26:14;;;;;;;20.90;13.17;;;0.60;99.90;;;;;;5114292;28;20205;-77
2021/01/15 07:28:42;;;;;;;19.73;12.70;;;0.60;99.90;;;;;;5113729;28;20197;-77
2021/01/15 07:31:22;;;;;;;20.13;14.23;;;0.60;99.90;;;;;;5116542;28;20555;-77
2021/01/15 07:33:52;;;;;;;21.00;13.60;;;0.70;99.90;;;;;;5098793;28;20868;-76
2021/01/15 07:36:31;;;;;;;18.37;12.83;;;0.70;99.90;;;;;;5097042;28;20572;-77
2021/01/15 07:39:06;;;;;;;21.07;13.40;;;0.70;99.90;;;;;;5104763;28;20216;-78
2021/01/15 07:41:43;;;;;;;20.57;13.87;;;0.70;99.90;;;;;;5098937;28;20225;-78
2021/01/15 07:44:38;;;;;;;20.60;12.37;;;0.70;99.90;;;;;;5106757;28;20254;-79
2021/01/15 07:47:11;;;;;;;22.13;13.10;;;0.70;99.90;;;;;;5095423;28;20225;-80
2021/01/15 07:49:48;;;;;;;20.13;13.40;;;0.80;99.90;;;;;;5112028;28;20213;-79
2021/01/15 07:52:15;;;;;;;22.73;13.87;;;0.80;99.90;;;;;;5106538;28;20228;-79
2021/01/15 07:54:59;;;;;;;18.00;12.47;;;0.80;99.90;;;;;;5095277;28;20342;-79
2021/01/15 07:57:26;;;;;;;17.53;12.40;;;0.90;99.90;;;;;;5095200;28;20554;-79
2021/01/15 07:59:53;;;;;;;20.20;13.60;;;0.80;99.90;;;;;;5098508;28;20205;-79
2021/01/15 08:02:20;;;;;;;17.07;13.00;;;0.90;99.90;;;;;;5098651;28;20198;-79
2021/01/15 08:04:47;;;;;;;25.13;13.27;;;0.80;99.90;;;;;;5101349;28;20202;-78
2021/01/15 08:07:26;;;;;;;17.53;12.80;;;0.80;99.90;;;;;;5094918;28;20539;-79
2021/01/15 08:09:52;;;;;;;21.37;12.17;;;0.90;99.90;;;;;;5103782;28;20198;-79
2021/01/15 08:12:19;;;;;;;19.73;12.93;;;0.90;99.90;;;;;;5105650;28;20567;-79
2021/01/15 08:14:45;;;;;;;19.37;12.63;;;0.90;99.90;;;;;;5106937;28;20646;-79
2021/01/15 08:17:14;;;;;;;15.43;11.93;;;0.90;99.90;;;;;;5110228;28;20648;-78
2021/01/15 08:19:42;;;;;;;21.00;13.60;;;0.90;99.90;;;;;;5109942;28;20198;-79
2021/01/15 08:22:13;;;;;;;18.67;13.13;;;0.90;99.90;;;;;;5115526;28;20288;-78
2021/01/15 08:24:46;;;;;;;21.00;13.53;;;1.00;99.90;;;;;;5109804;28;20281;-78
2021/01/15 08:27:18;;;;;;;20.10;13.43;;;1.00;99.90;;;;;;5101349;28;20201;-78
2021/01/15 08:29:45;;;;;;;19.43;13.03;;;1.00;99.90;;;;;;5098619;28;20198;-78
2021/01/15 08:32:12;;;;;;;18.47;12.67;;;1.10;99.90;;;;;;5114916;28;20254;-79
2021/01/15 08:34:40;;;;;;;18.93;13.43;;;1.10;99.90;;;;;;5115176;28;20225;-79
2021/01/15 08:37:08;;;;;;;18.33;14.13;;;1.10;99.90;;;;;;5114344;28;20205;-79
2021/01/15 08:39:45;;;;;;;18.90;12.40;;;1.10;99.90;;;;;;5101921;28;20206;-80
2021/01/15 08:42:12;;;;;;;16.07;12.37;;;1.10;99.90;;;;;;5108694;28;20348;-80
2021/01/15 08:44:39;;;;;;;18.03;12.73;;;1.10;99.90;;;;;;5111011;28;20597;-80
2021/01/15 08:47:10;;;;;;;20.43;13.27;;;1.10;99.90;;;;;;5109470;28;20281;-80
2021/01/15 08:49:37;;;;;;;21.60;13.60;;;1.10;99.90;;;;;;5108328;28;20567;-79
2021/01/15 08:52:05;;;;;;;21.23;13.57;;;1.20;99.90;;;;;;5110452;28;20205;-80
2021/01/15 08:54:33;;;;;;;20.47;14.03;;;1.20;99.90;;;;;;5109803;28;20591;-81
2021/01/15 08:57:02;;;;;;;16.13;12.90;;;1.20;99.90;;;;;;5109655;28;20666;-81
2021/01/15 08:59:30;;;;;;;19.27;13.50;;;1.20;99.90;;;;;;5108390;28;20649;-82
2021/01/15 09:01:58;;;;;;;18.73;12.93;;;1.20;99.90;;;;;;5110972;28;21415;-82
2021/01/15 09:04:25;;;;;;;19.90;14.83;;;1.30;99.90;;;;;;5109845;28;20208;-81
2021/01/15 09:06:55;;;;;;;18.20;13.63;;;1.30;99.90;;;;;;5111279;28;20213;-82
2021/01/15 09:09:22;;;;;;;19.10;13.57;;;1.30;99.90;;;;;;5108968;28;20225;-82
2021/01/15 09:11:50;;;;;;;17.97;13.37;;;1.30;99.90;;;;;;5109391;28;20254;-81
2021/01/15 09:14:20;;;;;;;24.00;13.57;;;1.30;99.90;;;;;;5109196;28;20613;-82
2021/01/15 09:16:48;;;;;;;19.87;14.00;;;1.30;99.90;;;;;;5110910;28;20548;-82
2021/01/15 09:19:14;;;;;;;15.90;12.67;;;1.40;99.90;;;;;;5108990;28;20209;-81
2021/01/15 09:21:49;;;;;;;21.33;13.90;;;1.40;99.90;;;;;;5109276;28;20201;-80
2021/01/15 09:24:17;;;;;;;21.00;13.50;;;1.40;99.90;;;;;;5109250;28;20281;-80
2021/01/15 09:26:44;;;;;;;19.80;13.47;;;1.30;99.90;;;;;;5109931;28;20198;-81
2021/01/15 09:29:11;;;;;;;19.10;13.77;;;1.50;99.90;;;;;;5108227;28;20567;-81
2021/01/15 09:31:39;;;;;;;20.47;15.13;;;1.60;99.90;;;;;;5109196;28;20240;-80
2021/01/15 09:34:05;;;;;;;20.33;14.90;;;1.60;99.90;;;;;;5107744;28;20277;-80
2021/01/15 09:36:32;;;;;;;21.03;14.97;;;1.60;99.90;;;;;;5108495;28;20305;-81
2021/01/15 09:38:59;;;;;;;24.33;15.73;;;1.60;99.90;;;;;;5108161;28;20197;-80
2021/01/15 09:41:26;;;;;;;19.33;13.50;;;1.60;99.90;;;;;;5109589;28;20580;-77
2021/01/15 09:43:54;;;;;;;17.83;13.37;;;1.50;99.90;;;;;;5110551;28;20284;-78
2021/01/15 09:46:28;;;;;;;21.42;16.52;;;1.70;99.90;;;;;;5110056;28;20435;-79
2021/01/15 09:48:56;;;;;;;20.63;13.50;;;1.70;99.90;;;;;;5108112;28;20196;-77
2021/01/15 09:51:24;;;;;;;18.60;13.37;;;1.70;99.90;;;;;;5108373;28;20320;-77
2021/01/15 09:53:51;;;;;;;20.23;14.53;;;1.80;99.90;;;;;;5107501;28;20240;-78
2021/01/15 09:56:26;;;;;;;20.67;14.13;;;1.80;99.90;;;;;;5107069;28;20723;-78
2021/01/15 09:58:53;;;;;;;18.13;13.73;;;1.80;99.90;;;;;;5107206;28;20201;-79
2021/01/15 10:01:19;;;;;;;18.97;12.87;;;1.80;99.90;;;;;;5106344;28;20205;-79
2021/01/15 10:03:46;;;;;;;19.40;13.97;;;1.90;99.90;;;;;;5107380;28;20328;-78
2021/01/15 10:06:16;;;;;;;19.70;13.57;;;1.80;99.90;;;;;;5107496;28;20204;-79
2021/01/15 10:08:43;;;;;;;20.40;14.20;;;1.80;99.90;;;;;;5106749;28;20209;-78
2021/01/15 10:11:09;;;;;;;20.17;13.80;;;1.90;99.90;;;;;;5099183;28;20289;-78
2021/01/15 10:13:37;;;;;;;17.93;13.77;;;1.80;99.90;;;;;;5093787;28;20213;-78
2021/01/15 10:16:06;;;;;;;18.90;14.43;;;1.90;99.90;;;;;;5094128;28;20206;-77
2021/01/15 10:18:33;;;;;;;18.97;13.53;;;1.90;99.90;;;;;;5096351;28;20206;-77
2021/01/15 10:20:59;;;;;;;23.23;14.80;;;1.90;99.90;;;;;;5095482;28;20205;-76
2021/01/15 10:23:25;;;;;;;20.40;14.37;;;2.00;99.90;;;;;;5100068;28;20534;-78
2021/01/15 10:25:52;;;;;;;22.03;15.27;;;2.00;99.90;;;;;;5112230;28;20202;-77
2021/01/15 10:28:18;;;;;;;25.67;15.77;;;2.00;99.90;;;;;;5112386;28;20285;-76
2021/01/15 10:30:46;;;;;;;21.17;14.37;;;2.10;99.90;;;;;;5109693;28;20330;-76
2021/01/15 10:33:16;;;;;;;21.20;15.13;;;2.10;99.90;;;;;;5113037;28;20207;-76
2021/01/15 10:35:42;;;;;;;21.80;14.43;;;2.10;99.90;;;;;;5114793;28;20586;-77
2021/01/15 10:38:08;;;;;;;19.93;15.57;;;2.20;99.90;;;;;;5116059;28;20661;-80
2021/01/15 10:40:35;;;;;;;24.83;15.40;;;2.30;99.90;;;;;;5114742;28;20210;-77
2021/01/15 10:43:01;;;;;;;20.97;13.97;;;2.30;99.90;;;;;;5109198;28;20214;-78
2021/01/15 10:45:27;;;;;;;18.53;12.97;;;2.30;99.90;;;;;;5098228;28;20220;-78
2021/01/15 10:47:55;;;;;;;20.27;14.37;;;2.20;99.90;;;;;;5097595;28;20209;-78
2021/01/15 10:50:21;;;;;;;22.30;14.57;;;2.30;99.90;;;;;;5108976;28;20228;-78
2021/01/15 10:52:54;;;;;;;21.80;14.07;;;2.40;99.90;;;;;;5099102;28;20220;-78
2021/01/15 10:55:20;;;;;;;21.90;13.03;;;2.40;99.90;;;;;;5097215;28;20225;-78
2021/01/15 10:57:47;;;;;;;22.33;13.90;;;2.40;99.90;;;;;;5097827;28;20256;-78
2021/01/15 11:00:15;;;;;;;23.10;14.37;;;2.40;99.90;;;;;;5097275;28;20205;-76
2021/01/15 11:02:46;;;;;;;23.10;14.57;;;2.60;99.90;;;;;;5097003;28;20205;-76
2021/01/15 11:05:14;;;;;;;20.23;14.27;;;2.50;99.90;;;;;;5097051;28;20289;-77
2021/01/15 11:07:41;;;;;;;23.07;15.13;;;2.60;99.90;;;;;;5096935;28;20202;-75
2021/01/15 11:10:09;;;;;;;22.20;15.10;;;2.50;99.90;;;;;;5096579;28;20198;-75
2021/01/15 11:12:35;;;;;;;21.93;15.20;;;2.40;99.90;;;;;;5097040;28;20202;-75
2021/01/15 11:15:01;;;;;;;24.07;14.17;;;2.40;99.90;;;;;;5096747;28;20221;-75
2021/01/15 11:17:28;;;;;;;19.07;13.27;;;2.50;99.90;;;;;;5096899;28;20206;-75
2021/01/15 11:19:54;;;;;;;19.90;14.27;;;2.50;99.90;;;;;;5097195;28;20718;-76
2021/01/15 11:22:24;;;;;;;19.53;14.07;;;2.50;99.90;;;;;;5096775;28;20248;-75
2021/01/15 11:24:53;;;;;;;25.53;14.13;;;2.50;99.90;;;;;;5097590;28;20205;-75
2021/01/15 11:27:19;;;;;;;18.80;13.90;;;2.50;99.90;;;;;;5095814;28;20198;-75
2021/01/15 11:29:46;;;;;;;22.93;13.53;;;2.50;99.90;;;;;;5097219;28;20202;-75
2021/01/15 11:32:12;;;;;;;22.70;14.83;;;2.70;99.90;;;;;;5113668;28;20240;-75
2021/01/15 11:34:39;;;;;;;19.20;14.27;;;2.50;99.90;;;;;;5115624;28;20217;-75
2021/01/15 11:37:05;;;;;;;21.00;14.63;;;2.50;99.90;;;;;;5115282;28;20197;-76
2021/01/15 11:39:32;;;;;;;19.93;14.23;;;2.60;99.90;;;;;;5116063;28;20198;-75
2021/01/15 11:41:59;;;;;;;23.13;14.87;;;2.60;99.90;;;;;;5115707;28;20265;-77
2021/01/15 11:44:27;;;;;;;19.43;15.00;;;2.70;99.90;;;;;;5101693;28;20197;-75
2021/01/15 11:46:54;;;;;;;20.77;15.23;;;2.60;99.90;;;;;;5114908;28;20629;-75
2021/01/15 11:49:21;;;;;;;21.10;13.90;;;2.70;99.90;;;;;;5115601;28;20295;-75
2021/01/15 11:51:47;;;;;;;23.13;15.33;;;2.70;99.90;;;;;;5115587;28;20600;-75
2021/01/15 11:54:14;;;;;;;19.60;14.10;;;2.80;99.90;;;;;;5115087;28;20312;-75
2021/01/15 11:56:44;;;;;;;21.43;15.00;;;2.80;99.90;;;;;;5115742;28;20209;-76
2021/01/15 11:59:10;;;;;;;22.73;14.80;;;2.80;99.90;;;;;;5115590;28;20229;-75
2021/01/15 12:01:37;;;;;;;22.13;14.77;;;2.80;99.90;;;;;;5115256;28;20663;-75
2021/01/15 12:04:03;;;;;;;21.43;14.77;;;2.80;99.90;;;;;;5115450;28;20216;-75
2021/01/15 12:06:29;;;;;;;22.57;14.13;;;2.70;99.90;;;;;;5114687;28;20201;-75
2021/01/15 12:08:56;;;;;;;25.33;14.63;;;2.80;99.90;;;;;;5108403;28;20289;-75
2021/01/15 12:11:23;;;;;;;21.27;14.63;;;2.90;99.90;;;;;;5097919;28;20657;-76
2021/01/15 12:13:50;;;;;;;19.73;13.93;;;2.90;99.90;;;;;;5106578;28;20202;-74
2021/01/15 12:16:16;;;;;;;19.33;14.80;;;2.80;99.90;;;;;;5108198;28;20207;-74
2021/01/15 12:18:43;;;;;;;22.93;15.70;;;2.90;99.90;;;;;;5107538;28;20200;-76
2021/01/15 12:21:17;;;;;;;23.90;15.17;;;2.90;99.90;;;;;;5108319;28;20243;-74
2021/01/15 12:23:44;;;;;;;24.67;15.97;;;2.90;99.90;;;;;;5107574;28;20896;-74
2021/01/15 12:26:10;;;;;;;22.10;15.03;;;2.90;99.90;;;;;;5108067;28;20198;-74
2021/01/15 12:28:36;;;;;;;24.27;15.13;;;2.90;99.90;;;;;;5107410;28;20219;-75
2021/01/15 12:31:04;;;;;;;23.47;14.30;;;2.90;99.90;;;;;;5108208;28;20206;-74
2021/01/15 12:33:30;;;;;;;21.27;15.17;;;3.30;99.90;;;;;;5106703;28;21489;-74
2021/01/15 12:35:57;;;;;;;22.27;14.70;;;3.00;99.90;;;;;;5107348;28;20233;-74
2021/01/15 12:38:24;;;;;;;18.77;13.97;;;3.00;99.90;;;;;;5108164;28;20205;-76
2021/01/15 12:40:51;;;;;;;20.43;13.87;;;3.00;99.90;;;;;;5105010;28;20266;-74
2021/01/15 12:43:18;;;;;;;19.47;13.73;;;3.10;99.90;;;;;;5107190;28;20212;-76
2021/01/15 12:45:47;;;;;;;21.47;14.97;;;3.10;99.90;;;;;;5107412;28;20332;-75